Latest Weather Observations for Bourke

IDN60801

Issued at 11:05 pm EST Tuesday 16 September 2014 (issued every 30 minutes, with the page automatically refreshed every 10 minutes)

About weather observations | Map of weather stations | Latest weather observations for NSW | Other Formats
Station Details ID: 048245 Name: BOURKE AIRPORT AWS Lat: -30.04 Lon: 145.95 Height: 107.3 m
Data from the previous 72 hours. | See also: Recent months at Bourke
Date/Time
EST
Temp
°C
App
Temp
°C
Dew
Point
Rel
Hum
%
Delta-T
°C
Wind Press
QNH
hPa
Press
MSL
hPa
Rain
since 9 am
mm
Dir
 
Spd
km/h
Gust
km/h
Spd
kts
Gust
kts
16/11:00pm 15.1 11.2 3.6 46 5.3 WSW 13 15 7 8 1016.6 1016.4 0.0
16/10:30pm 15.2 11.7 3.7 46 5.3 WSW 11 15 6 8 1016.5 1016.3 0.0
16/10:00pm 15.6 11.7 3.4 44 5.6 WSW 13 17 7 9 1016.5 1016.3 0.0
16/09:30pm 16.5 12.7 3.9 43 5.9 WSW 13 17 7 9 1016.3 1016.1 0.0
16/09:00pm 15.8 12.4 3.9 45 5.5 WSW 11 13 6 7 1016.0 1015.8 0.0
16/08:30pm 16.0 12.1 3.4 43 5.8 WSW 13 17 7 9 1015.7 1015.5 0.0
16/08:00pm 17.0 13.5 3.3 40 6.3 WSW 11 15 6 8 1015.3 1015.1 0.0
16/07:30pm 17.8 13.9 3.3 38 6.8 WSW 13 17 7 9 1014.8 1014.6 0.0
16/07:00pm 18.3 14.3 3.0 36 7.1 WSW 13 17 7 9 1014.4 1014.2 0.0
16/06:30pm 19.6 15.7 3.3 34 7.7 SW 13 22 7 12 1014.0 1013.8 0.0
16/06:00pm 20.7 16.4 3.4 32 8.3 WSW 15 22 8 12 1013.7 1013.5 0.0
16/05:30pm 22.0 16.9 3.2 29 9.0 WSW 19 30 10 16 1013.5 1013.3 0.0
16/05:00pm 22.6 17.3 3.2 28 9.4 WSW 20 28 11 15 1013.3 1013.1 0.0
16/04:30pm 23.1 17.4 3.1 27 9.7 WSW 22 37 12 20 1013.3 1013.1 0.0
16/04:00pm 23.7 17.9 2.5 25 10.2 WSW 22 39 12 21 1013.4 1013.2 0.0
16/03:30pm 23.4 17.8 3.4 27 9.7 WSW 22 37 12 20 1013.3 1013.1 0.0
16/03:00pm 23.6 18.0 3.5 27 9.8 WSW 22 37 12 20 1013.2 1013.0 0.0
16/02:30pm 22.9 17.2 2.9 27 9.6 WNW 22 32 12 17 1013.4 1013.2 0.0
16/02:00pm 23.2 16.9 3.7 28 9.5 WSW 26 46 14 25 1013.7 1013.5 0.0
16/01:30pm 22.5 16.9 3.6 29 9.2 W 22 33 12 18 1014.0 1013.8 0.0
16/01:00pm 22.1 17.4 5.1 33 8.5 W 19 35 10 19 1014.3 1014.1 0.0
16/12:30pm 21.8 16.9 5.3 34 8.2 WSW 20 30 11 16 1014.5 1014.3 0.0
16/12:00pm 21.5 16.6 5.0 34 8.2 WSW 20 33 11 18 1014.9 1014.7 0.0
16/11:30am 20.9 15.4 6.1 38 7.5 WSW 24 37 13 20 1015.3 1015.1 0.0
16/11:00am 20.3 15.7 5.5 38 7.3 W 19 30 10 16 1015.6 1015.4 0.0
16/10:30am 20.0 15.9 6.4 41 6.9 W 17 32 9 17 1015.7 1015.5 0.0
16/10:00am 18.9 14.9 6.7 45 6.1 WSW 17 24 9 13 1015.6 1015.4 0.0
16/09:30am 18.2 13.9 7.0 48 5.6 WSW 19 26 10 14 1015.8 1015.6 0.0
16/09:00am 18.0 13.0 8.0 52 5.1 SW 24 33 13 18 1016.1 1015.9 0.0
16/08:30am 16.9 12.1 7.3 53 4.8 SW 22 32 12 17 1015.9 1015.7 0.0
16/08:00am 16.0 11.1 6.7 54 4.6 WSW 22 33 12 18 1015.6 1015.4 0.0
16/07:30am 15.1 11.3 5.9 54 4.4 WSW 15 20 8 11 1015.2 1015.0 0.0
16/07:00am 13.9 10.1 5.8 58 3.9 WSW 15 20 8 11 1014.8 1014.6 0.0
16/06:30am 12.4 8.8 5.1 61 3.4 WSW 13 17 7 9 1014.5 1014.3 0.0
16/06:00am 12.8 9.6 5.2 60 3.5 WSW 11 17 6 9 1014.2 1014.0 0.0
16/05:30am 13.1 9.5 5.0 58 3.8 WSW 13 19 7 10 1013.8 1013.6 0.0
16/05:00am 13.5 10.3 5.2 57 3.9 WSW 11 17 6 9 1013.6 1013.4 0.0
16/04:30am 14.4 10.8 5.2 54 4.3 W 13 19 7 10 1013.2 1013.0 0.0
16/04:00am 14.6 11.8 5.1 53 4.5 W 9 13 5 7 1012.8 1012.6 0.0
16/03:30am 14.2 11.4 5.0 54 4.3 W 9 13 5 7 1012.8 1012.6 0.0
16/03:00am 15.8 12.6 5.1 49 5.1 W 11 15 6 8 1012.9 1012.7 0.0
16/02:30am 16.3 12.7 5.0 47 5.4 W 13 20 7 11 1013.0 1012.8 0.0
16/02:00am 16.6 13.4 4.9 46 5.6 W 11 17 6 9 1013.1 1012.9 0.0
16/01:30am 17.4 13.7 4.7 43 6.1 WSW 13 20 7 11 1013.3 1013.1 0.0
16/01:00am 18.6 13.3 4.8 40 6.7 WSW 22 37 12 20 1013.3 1013.1 0.0
16/12:30am 19.6 15.1 4.1 36 7.4 WSW 17 26 9 14 1013.4 1013.2 0.0
16/12:00am 20.1 15.7 2.9 32 8.1 W 15 24 8 13 1013.4 1013.2 0.0
 
Date/Time
EST
Temp
°C
App
Temp
°C
Dew
Point
Rel
Hum
%
Delta-T
°C
Wind Press
QNH
hPa
Press
MSL
hPa
Rain
since 9 am
mm
Dir
 
Spd
km/h
Gust
km/h
Spd
kts
Gust
kts
15/11:30pm 20.9 16.0 2.2 29 8.7 W 17 26 9 14 1013.1 1012.9 0.0
15/11:00pm 21.2 17.0 1.5 27 9.1 W 13 20 7 11 1012.9 1012.7 0.0
15/10:30pm 22.3 16.7 1.3 25 9.7 WSW 20 37 11 20 1012.5 1012.3 0.0
15/10:00pm 22.2 16.5 -0.5 22 10.2 W 19 32 10 17 1012.0 1011.8 0.0
15/09:30pm 20.2 16.1 -0.4 25 9.1 N 11 13 6 7 1010.7 1010.4 0.0
15/09:00pm 19.5 15.7 -0.5 26 8.8 NNE 9 11 5 6 1010.6 1010.3 0.0
15/08:30pm 18.4 13.8 -1.4 26 8.4 NNE 13 17 7 9 1010.7 1010.4 0.0
15/08:00pm 19.8 15.9 -1.3 24 9.1 NNE 9 9 5 5 1010.8 1010.5 0.0
15/07:30pm 22.0 18.5 -2.7 19 10.6 NNW 6 7 3 4 1010.8 1010.5 0.0
15/07:00pm 26.0 22.0 -2.6 15 12.7 NW 9 13 5 7 1010.9 1010.6 0.0
15/06:30pm 27.4 23.0 -2.4 14 13.4 WNW 11 19 6 10 1010.9 1010.6 0.0
15/06:00pm 27.5 23.4 -3.3 13 13.7 WNW 9 15 5 8 1010.9 1010.6 0.0
15/05:30pm 28.3 23.9 -2.7 13 14.0 WNW 11 15 6 8 1010.9 1010.6 0.0
15/05:00pm 28.8 23.9 -3.4 12 14.4 W 13 20 7 11 1010.8 1010.5 0.0
15/04:30pm 29.1 23.5 -3.2 12 14.6 W 17 26 9 14 1010.8 1010.5 0.0
15/04:00pm 29.5 24.2 -4.0 11 14.9 WNW 15 24 8 13 1010.8 1010.5 0.0
15/03:30pm 29.7 23.6 -3.9 11 15.0 WNW 19 30 10 16 1011.1 1010.8 0.0
15/03:00pm 30.3 26.7 -3.4 11 15.3 NNE 6 - 3 - 1011.4 1011.2 0.0
15/02:30pm 30.4 25.1 -3.3 11 15.3 NW 15 26 8 14 1011.7 1011.5 0.0
15/02:00pm 29.9 23.6 -3.7 11 15.1 NNW 20 28 11 15 1012.0 1011.8 0.0
15/01:30pm 28.2 22.0 -5.0 11 14.4 NW 19 32 10 17 1012.5 1012.3 0.0
15/01:00pm 28.7 22.9 -4.6 11 14.6 NNW 17 32 9 17 1013.3 1013.1 0.0
15/12:30pm 28.8 23.9 -3.4 12 14.4 WNW 13 32 7 17 1013.8 1013.6 0.0
15/12:00pm 28.1 23.9 -3.9 12 14.1 NW 9 19 5 10 1014.3 1014.1 0.0
15/11:30am 27.6 22.6 -4.3 12 13.9 NNW 13 20 7 11 1015.0 1014.8 0.0
15/11:00am 27.0 21.7 -3.7 13 13.5 N 15 24 8 13 1015.5 1015.3 0.0
15/10:30am 26.3 20.9 -4.3 13 13.2 N 15 22 8 12 1015.8 1015.6 0.0
15/10:00am 25.5 20.2 -3.9 14 12.7 NNE 15 20 8 11 1016.0 1015.8 0.0
15/09:30am 23.7 18.5 -2.8 17 11.5 NNE 15 20 8 11 1016.4 1016.2 0.0
15/09:00am 21.4 15.8 -2.5 20 10.2 NNE 17 20 9 11 1016.6 1016.4 0.0
15/08:30am 19.6 15.4 -0.9 25 8.9 NE 11 13 6 7 1016.7 1016.5 0.0
15/08:00am 16.7 12.8 1.2 35 6.8 ENE 11 15 6 8 1016.7 1016.5 0.0
15/07:30am 13.8 10.2 0.8 41 5.6 ENE 9 11 5 6 1016.7 1016.5 0.0
15/07:28am 13.6 10.0 0.6 41 5.5 ENE 9 11 5 6 1016.7 1016.5 0.0
15/07:00am 8.6 6.8 1.5 61 2.9 CALM 0 0 0 0 1016.6 1016.4 0.0
15/06:30am 5.4 3.2 -1.7 60 2.6 CALM 0 0 0 0 1016.5 1016.3 0.0
15/06:00am 5.7 2.3 -2.1 57 2.8 SE 6 7 3 4 1016.3 1016.1 0.0
15/05:30am 6.3 4.2 -1.1 59 2.8 CALM 0 0 0 0 1016.1 1015.9 0.0
15/05:00am 6.2 3.9 -2.4 54 3.1 CALM 0 0 0 0 1015.8 1015.6 0.0
15/04:30am 5.7 3.4 -2.6 55 3.0 CALM 0 0 0 0 1015.7 1015.5 0.0
15/04:00am 6.7 3.2 -3.2 49 3.6 W 6 7 3 4 1015.8 1015.6 0.0
15/03:30am 7.0 4.6 -3.5 47 3.8 CALM 0 0 0 0 1015.9 1015.7 0.0
15/03:00am 6.9 3.4 -2.5 51 3.4 NNW 6 7 3 4 1015.9 1015.7 0.0
15/02:30am 7.2 4.9 -2.5 50 3.6 CALM 0 0 0 0 1016.0 1015.8 0.0
15/02:00am 8.3 5.9 -3.2 44 4.2 CALM 0 0 0 0 1016.3 1016.1 0.0
15/01:30am 8.3 6.0 -2.0 48 3.9 CALM 0 0 0 0 1016.4 1016.2 0.0
15/01:00am 9.0 5.3 -3.2 42 4.5 S 7 9 4 5 1016.6 1016.4 0.0
15/12:30am 9.7 6.1 -1.9 44 4.5 SSE 7 9 4 5 1016.8 1016.6 0.0
15/12:00am 9.8 6.1 -2.5 42 4.7 S 7 7 4 4 1017.1 1016.9 0.0
 
Date/Time
EST
Temp
°C
App
Temp
°C
Dew
Point
Rel
Hum
%
Delta-T
°C
Wind Press
QNH
hPa
Press
MSL
hPa
Rain
since 9 am
mm
Dir
 
Spd
km/h
Gust
km/h
Spd
kts
Gust
kts
14/11:30pm 10.5 6.7 -3.6 37 5.3 S 7 9 4 5 1017.3 1017.1 0.0
14/11:00pm 11.2 7.5 -2.9 37 5.4 S 7 9 4 5 1017.5 1017.3 0.0
14/10:30pm 12.8 8.8 -2.6 34 6.0 S 9 11 5 6 1017.8 1017.6 0.0
14/10:00pm 13.4 9.7 -2.9 32 6.4 S 7 7 4 4 1017.8 1017.6 0.0
14/09:30pm 14.6 10.5 -3.2 29 7.0 SSW 9 9 5 5 1018.0 1017.8 0.0
14/09:00pm 15.4 - -2.5 29 7.2 - - - - - 1017.9 1017.7 0.0
14/08:30pm 15.3 11.6 -3.1 28 7.3 SSW 7 9 4 5 1017.9 1017.7 0.0
14/08:00pm 15.3 11.6 -3.1 28 7.3 SW 7 9 4 5 1017.7 1017.5 0.0
14/07:30pm 17.1 - -3.6 24 8.3 - - - - - 1017.4 1017.2 0.0
14/07:00pm 19.5 - -4.0 20 9.6 - - - - - 1017.0 1016.8 0.0
14/06:30pm 22.2 18.6 -4.0 17 11.0 SW 6 9 3 5 1016.8 1016.6 0.0
14/06:00pm 24.3 19.7 -4.0 15 12.0 SW 11 17 6 9 1016.6 1016.4 0.0
14/05:30pm 26.6 21.6 -4.0 13 13.3 WSW 13 22 7 12 1016.4 1016.2 0.0
14/05:00pm 27.2 22.3 -3.6 13 13.6 SW 13 19 7 10 1016.1 1015.9 0.0
14/04:30pm 27.9 23.0 -3.0 13 13.8 WNW 13 20 7 11 1016.1 1015.9 0.0
14/04:00pm 27.8 22.6 -3.1 13 13.8 NW 15 20 8 11 1016.3 1016.1 0.0
14/03:30pm 27.2 23.0 -3.6 13 13.6 W 9 17 5 9 1016.5 1016.3 0.0
14/03:00pm 27.6 23.2 -2.3 14 13.5 NW 11 22 6 12 1016.7 1016.5 0.0
14/02:30pm 27.0 21.3 -3.7 13 13.5 W 17 22 9 12 1017.0 1016.8 0.0
14/02:00pm 27.0 21.4 -2.7 14 13.3 NW 17 28 9 15 1017.2 1017.0 0.0
14/01:30pm 27.1 22.8 -1.7 15 13.1 WNW 11 20 6 11 1017.8 1017.6 0.0
14/01:00pm 26.2 22.8 -0.8 17 12.4 NNW 7 17 4 9 1018.3 1018.1 0.0
14/12:30pm 26.0 22.0 0.6 19 12.0 N 11 22 6 12 1018.9 1018.7 0.0
14/12:00pm 26.0 22.4 0.6 19 11.9 NNE 9 19 5 10 1019.6 1019.4 0.0
14/11:30am 25.1 21.8 2.5 23 11.0 NE 9 17 5 9 1020.2 1020.0 0.0
14/11:00am 23.5 19.7 1.8 24 10.2 NNE 11 17 6 9 1020.7 1020.5 0.0
14/10:30am 23.1 19.9 3.1 27 9.7 NE 9 17 5 9 1021.0 1020.8 0.0
14/10:00am 21.8 18.4 3.9 31 8.7 E 11 15 6 8 1021.5 1021.3 0.0
14/09:30am 20.7 17.0 4.3 34 8.0 ENE 13 19 7 10 1021.9 1021.7 0.0
14/09:00am 18.5 15.1 3.9 38 6.9 E 11 15 6 8 1022.1 1021.9 0.0
14/08:30am 16.4 13.1 2.4 39 6.3 ESE 9 11 5 6 1022.2 1022.0 0.0
14/08:00am 14.2 10.8 1.8 43 5.4 S 9 11 5 6 1022.0 1021.8 0.0
14/07:30am 12.6 9.7 2.5 50 4.4 S 7 9 4 5 1021.6 1021.4 0.0
14/07:00am 10.4 7.4 2.0 56 3.6 S 7 9 4 5 1021.3 1021.1 0.0
14/06:30am 8.3 5.4 1.2 61 2.9 SE 6 7 3 4 1020.9 1020.7 0.0
14/06:00am 7.4 3.5 1.3 65 2.5 ESE 11 11 6 6 1020.6 1020.4 0.0
14/05:30am 8.1 4.6 1.0 61 2.9 SE 9 11 5 6 1020.3 1020.1 0.0
14/05:00am 9.4 6.3 1.1 56 3.4 SSE 7 11 4 6 1020.2 1020.0 0.0
14/04:30am 8.5 5.1 1.6 62 2.9 SE 9 11 5 6 1019.9 1019.7 0.0
14/04:00am 7.9 4.8 1.3 63 2.7 SE 7 9 4 5 1020.0 1019.8 0.0
14/03:30am 8.6 5.4 0.8 58 3.2 SSE 7 9 4 5 1020.2 1020.0 0.0
14/03:00am 9.6 6.1 1.3 56 3.4 SSE 9 9 5 5 1020.3 1020.1 0.0
14/02:30am 8.3 4.7 0.8 59 3.0 SSE 9 9 5 5 1020.4 1020.2 0.0
14/02:00am 7.9 4.7 0.9 61 2.8 SE 7 9 4 5 1020.6 1020.4 0.0
14/01:30am 8.2 5.2 0.9 60 3.0 E 6 7 3 4 1020.9 1020.7 0.0
14/01:00am 7.8 4.5 -0.2 57 3.1 SSW 7 9 4 5 1021.2 1021.0 0.0
14/12:30am 8.6 5.2 -0.7 52 3.6 SW 7 7 4 4 1021.2 1021.0 0.0
14/12:00am 10.0 6.8 0.6 52 3.8 SW 7 9 4 5 1021.3 1021.1 0.0
 
Date/Time
EST
Temp
°C
App
Temp
°C
Dew
Point
Rel
Hum
%
Delta-T
°C
Wind Press
QNH
hPa
Press
MSL
hPa
Rain
since 9 am
mm
Dir
 
Spd
km/h
Gust
km/h
Spd
kts
Gust
kts
13/11:30pm 10.3 6.9 -0.5 47 4.3 SW 7 9 4 5 1021.2 1021.0 0.0

Other Formats:

Comma delimited format used in spreadsheet applications
http://www.bom.gov.au/fwo/IDN60801/IDN60801.94703.axf

JavaScript Object Notation format (JSON) in row-major order
http://www.bom.gov.au/fwo/IDN60801/IDN60801.94703.json